Time,TemperatureF,DewpointF,PressureIn,WindDirection,WindDirectionDegrees,WindSpeedMPH,WindSpeedGustMPH,Humidity,HourlyPrecipIn,Conditions,Clouds,dailyrainin,SoftwareType,DateUTC
2013-03-20 00:02:00,45.0,44.0,30.12,NE,52,1.0,2.0,95,0.00,,,0.10,,2013-03-20 07:02:00,
2013-03-20 00:11:00,45.0,44.0,30.12,NE,52,1.0,2.0,95,0.00,,,0.10,,2013-03-20 07:11:00,
2013-03-20 00:22:00,45.0,44.0,30.12,NE,52,1.0,2.0,95,0.00,,,0.10,,2013-03-20 07:22:00,
2013-03-20 00:32:00,45.0,43.0,30.12,ENE,68,2.0,3.0,94,0.00,,,0.10,,2013-03-20 07:32:00,
2013-03-20 00:41:00,45.0,43.0,30.12,ENE,68,2.0,3.0,94,0.00,,,0.10,,2013-03-20 07:41:00,
2013-03-20 00:52:00,45.0,43.0,30.12,ENE,74,1.0,2.0,94,0.02,,,0.12,,2013-03-20 07:52:00,
2013-03-20 01:02:00,45.0,44.0,30.13,NE,42,0.0,2.0,95,0.03,,,0.13,,2013-03-20 08:02:00,
2013-03-20 01:11:00,45.0,44.0,30.13,NE,42,0.0,2.0,95,0.03,,,0.13,,2013-03-20 08:11:00,
2013-03-20 01:21:00,45.0,44.0,30.13,NE,42,1.0,1.0,95,0.05,,,0.15,,2013-03-20 08:21:00,
2013-03-20 01:32:00,45.0,44.0,30.13,NNE,28,0.0,2.0,96,0.07,,,0.17,,2013-03-20 08:32:00,
2013-03-20 01:42:00,45.0,44.0,30.13,NNE,28,0.0,2.0,96,0.07,,,0.17,,2013-03-20 08:42:00,
2013-03-20 01:51:00,45.0,44.0,30.14,NW,315,1.0,2.0,96,0.08,,,0.20,,2013-03-20 08:51:00,
2013-03-20 02:02:00,45.0,44.0,30.14,NW,308,1.0,2.0,96,0.09,,,0.22,,2013-03-20 09:02:00,
2013-03-20 02:11:00,45.0,44.0,30.14,NW,308,1.0,2.0,96,0.09,,,0.22,,2013-03-20 09:11:00,
2013-03-20 02:22:00,45.0,44.0,30.14,WSW,254,1.0,2.0,96,0.09,,,0.24,,2013-03-20 09:22:00,
2013-03-20 02:32:00,45.0,44.0,30.14,WSW,255,1.0,2.0,97,0.09,,,0.26,,2013-03-20 09:32:00,
2013-03-20 02:42:00,45.0,44.0,30.14,WSW,255,1.0,2.0,97,0.09,,,0.26,,2013-03-20 09:42:00,
2013-03-20 02:52:00,45.0,44.0,30.14,WNW,298,1.0,2.0,97,0.08,,,0.28,,2013-03-20 09:52:00,
2013-03-20 03:02:00,45.0,44.0,30.14,NW,311,0.0,2.0,97,0.07,,,0.29,,2013-03-20 10:02:00,
2013-03-20 03:12:00,45.0,44.0,30.14,NW,311,0.0,2.0,97,0.07,,,0.29,,2013-03-20 10:12:00,
2013-03-20 03:22:00,45.0,44.0,30.13,WNW,302,0.0,2.0,97,0.07,,,0.31,,2013-03-20 10:22:00,
2013-03-20 03:32:00,45.0,44.0,30.12,NW,307,0.0,1.0,97,0.06,,,0.32,,2013-03-20 10:32:00,
2013-03-20 03:42:00,45.0,44.0,30.12,NW,307,0.0,1.0,97,0.06,,,0.32,,2013-03-20 10:42:00,
2013-03-20 03:52:00,45.0,44.0,30.12,ESE,114,1.0,3.0,97,0.04,,,0.32,,2013-03-20 10:52:00,
2013-03-20 04:02:00,45.0,44.0,30.11,ESE,114,1.0,2.0,97,0.03,,,0.32,,2013-03-20 11:02:00,
2013-03-20 04:11:00,45.0,44.0,30.11,ESE,114,1.0,2.0,97,0.03,,,0.32,,2013-03-20 11:11:00,
2013-03-20 04:22:00,45.0,44.0,30.10,East,82,1.0,3.0,96,0.01,,,0.32,,2013-03-20 11:22:00,
2013-03-20 04:32:00,45.0,44.0,30.11,NW,319,1.0,2.0,97,0.00,,,0.32,,2013-03-20 11:32:00,
2013-03-20 04:42:00,45.0,44.0,30.11,NW,319,1.0,2.0,97,0.00,,,0.32,,2013-03-20 11:42:00,
2013-03-20 04:52:00,45.0,44.0,30.10,WSW,245,0.0,3.0,96,0.00,,,0.32,,2013-03-20 11:52:00,
2013-03-20 05:02:00,46.0,45.0,30.09,WSW,239,1.0,6.0,97,0.02,,,0.34,,2013-03-20 12:02:00,
2013-03-20 05:11:00,46.0,45.0,30.09,WSW,239,1.0,6.0,97,0.02,,,0.34,,2013-03-20 12:11:00,
2013-03-20 05:22:00,46.0,45.0,30.09,WNW,298,2.0,5.0,96,0.03,,,0.35,,2013-03-20 12:22:00,
2013-03-20 05:32:00,46.0,45.0,30.09,WNW,294,2.0,6.0,96,0.03,,,0.35,,2013-03-20 12:32:00,
2013-03-20 05:42:00,46.0,45.0,30.09,WNW,294,2.0,6.0,96,0.03,,,0.35,,2013-03-20 12:42:00,
2013-03-20 05:52:00,46.0,45.0,30.09,WNW,297,2.0,7.0,96,0.06,,,0.38,,2013-03-20 12:52:00,
2013-03-20 06:02:00,46.0,45.0,30.09,WSW,244,1.0,4.0,97,0.07,,,0.41,,2013-03-20 13:02:00,
2013-03-20 06:12:00,46.0,45.0,30.09,WSW,244,1.0,4.0,97,0.07,,,0.41,,2013-03-20 13:12:00,
2013-03-20 06:22:00,46.0,45.0,30.09,West,273,1.0,3.0,97,0.08,,,0.43,,2013-03-20 13:22:00,
2013-03-20 06:32:00,46.0,45.0,30.09,West,263,1.0,5.0,97,0.08,,,0.43,,2013-03-20 13:32:00,
2013-03-20 06:42:00,46.0,45.0,30.09,West,263,1.0,5.0,97,0.08,,,0.43,,2013-03-20 13:42:00,
2013-03-20 06:52:00,47.0,46.0,30.09,West,262,2.0,6.0,97,0.04,,,0.43,,2013-03-20 13:52:00,
2013-03-20 07:02:00,47.0,46.0,30.09,WNW,297,2.0,9.0,96,0.02,,,0.43,,2013-03-20 14:02:00,
2013-03-20 07:11:00,47.0,46.0,30.09,WNW,297,2.0,9.0,96,0.02,,,0.43,,2013-03-20 14:11:00,
2013-03-20 07:22:00,47.0,46.0,30.09,SW,236,2.0,5.0,97,0.00,,,0.43,,2013-03-20 14:22:00,
2013-03-20 07:32:00,47.0,46.0,30.09,WNW,298,1.0,5.0,97,0.00,,,0.43,,2013-03-20 14:32:00,
2013-03-20 07:42:00,47.0,46.0,30.09,WNW,298,1.0,5.0,97,0.00,,,0.43,,2013-03-20 14:42:00,
2013-03-20 07:51:00,47.0,46.0,30.09,WSW,248,2.0,6.0,97,0.01,,,0.44,,2013-03-20 14:51:00,
2013-03-20 08:02:00,47.0,46.0,30.08,WNW,284,2.0,4.0,97,0.01,,,0.44,,2013-03-20 15:02:00,
2013-03-20 08:12:00,47.0,46.0,30.09,WNW,288,1.0,6.0,97,0.01,,,0.44,,2013-03-20 15:12:00,
2013-03-20 08:22:00,47.0,46.0,30.09,WNW,288,1.0,6.0,97,0.01,,,0.44,,2013-03-20 15:22:00,
2013-03-20 08:33:00,47.0,46.0,30.09,WNW,292,2.0,4.0,97,0.01,,,0.44,,2013-03-20 15:33:00,
2013-03-20 08:43:00,47.0,46.0,30.09,WNW,292,2.0,4.0,97,0.01,,,0.44,,2013-03-20 15:43:00,
2013-03-20 08:52:00,47.0,46.0,30.09,WNW,300,1.0,4.0,98,0.00,,,0.44,,2013-03-20 15:52:00,
2013-03-20 09:02:00,47.0,46.0,30.09,WNW,300,1.0,4.0,97,0.01,,,0.45,,2013-03-20 16:02:00,
2013-03-20 09:12:00,47.0,46.0,30.09,WNW,300,1.0,4.0,97,0.01,,,0.45,,2013-03-20 16:12:00,
2013-03-20 09:22:00,47.0,46.0,30.10,West,272,1.0,2.0,97,0.01,,,0.45,,2013-03-20 16:22:00,
2013-03-20 09:32:00,47.0,46.0,30.11,WNW,288,1.0,2.0,98,0.04,,,0.48,,2013-03-20 16:32:00,
2013-03-20 09:42:00,47.0,46.0,30.11,WNW,288,1.0,2.0,98,0.04,,,0.48,,2013-03-20 16:42:00,
2013-03-20 09:52:00,47.0,46.0,30.11,SW,224,0.0,2.0,98,0.08,,,0.52,,2013-03-20 16:52:00,
2013-03-20 10:02:00,48.0,47.0,30.11,WSW,255,1.0,3.0,98,0.08,,,0.53,,2013-03-20 17:02:00,
2013-03-20 10:11:00,48.0,47.0,30.11,WSW,255,1.0,3.0,98,0.08,,,0.53,,2013-03-20 17:11:00,
2013-03-20 10:21:00,48.0,47.0,30.11,West,264,1.0,3.0,98,0.11,,,0.56,,2013-03-20 17:21:00,
2013-03-20 10:32:00,48.0,47.0,30.12,WNW,290,0.0,2.0,97,0.11,,,0.59,,2013-03-20 17:32:00,
2013-03-20 10:42:00,48.0,47.0,30.12,WNW,290,0.0,2.0,97,0.11,,,0.59,,2013-03-20 17:42:00,
2013-03-20 10:52:00,48.0,47.0,30.12,WSW,240,1.0,2.0,97,0.08,,,0.60,,2013-03-20 17:52:00,
2013-03-20 11:02:00,48.0,47.0,30.12,WSW,240,0.0,1.0,98,0.08,,,0.61,,2013-03-20 18:02:00,
2013-03-20 11:12:00,48.0,47.0,30.12,WSW,240,0.0,1.0,98,0.08,,,0.61,,2013-03-20 18:12:00,
2013-03-20 11:22:00,48.0,47.0,30.12,WSW,240,1.0,1.0,98,0.07,,,0.63,,2013-03-20 18:22:00,
2013-03-20 11:32:00,49.0,48.0,30.13,WSW,251,1.0,3.0,98,0.05,,,0.64,,2013-03-20 18:32:00,
2013-03-20 11:42:00,49.0,48.0,30.13,WSW,251,1.0,3.0,98,0.05,,,0.64,,2013-03-20 18:42:00,
2013-03-20 11:52:00,49.0,48.0,30.13,West,273,0.0,2.0,98,0.04,,,0.64,,2013-03-20 18:52:00,
2013-03-20 12:02:00,49.0,48.0,30.13,WSW,254,1.0,3.0,98,0.03,,,0.64,,2013-03-20 19:02:00,
2013-03-20 12:12:00,49.0,48.0,30.13,WSW,254,1.0,3.0,98,0.03,,,0.64,,2013-03-20 19:12:00,
2013-03-20 12:22:00,49.0,48.0,30.13,WNW,284,1.0,3.0,97,0.01,,,0.64,,2013-03-20 19:22:00,
2013-03-20 12:32:00,50.0,49.0,30.12,West,263,2.0,3.0,98,0.00,,,0.64,,2013-03-20 19:32:00,
2013-03-20 12:42:00,50.0,49.0,30.12,West,263,2.0,3.0,98,0.00,,,0.64,,2013-03-20 19:42:00,
2013-03-20 13:02:00,50.0,49.0,30.12,South,188,1.0,4.0,98,0.00,,,0.64,,2013-03-20 20:02:00,
2013-03-20 13:12:00,50.0,49.0,30.12,South,188,1.0,4.0,98,0.00,,,0.64,,2013-03-20 20:12:00,
2013-03-20 13:22:00,50.0,49.0,30.12,WNW,290,2.0,5.0,98,0.00,,,0.64,,2013-03-20 20:22:00,
2013-03-20 13:32:00,50.0,49.0,30.12,NW,304,3.0,5.0,98,0.00,,,0.64,,2013-03-20 20:32:00,
2013-03-20 13:42:00,50.0,49.0,30.12,NW,304,3.0,5.0,98,0.00,,,0.64,,2013-03-20 20:42:00,
2013-03-20 13:52:00,51.0,50.0,30.12,NW,304,2.0,5.0,98,0.00,,,0.64,,2013-03-20 20:52:00,
2013-03-20 14:02:00,51.0,50.0,30.12,WNW,295,2.0,3.0,98,0.00,,,0.64,,2013-03-20 21:02:00,
2013-03-20 14:11:00,51.0,50.0,30.12,WNW,295,2.0,3.0,98,0.00,,,0.64,,2013-03-20 21:11:00,
2013-03-20 14:22:00,51.0,50.0,30.12,WSW,257,1.0,3.0,98,0.00,,,0.64,,2013-03-20 21:22:00,
2013-03-20 14:33:00,51.0,50.0,30.12,WNW,282,2.0,5.0,98,0.00,,,0.64,,2013-03-20 21:33:00,
2013-03-20 14:42:00,51.0,50.0,30.12,WNW,282,2.0,5.0,98,0.00,,,0.64,,2013-03-20 21:42:00,
2013-03-20 14:52:00,52.0,52.0,30.12,WNW,298,2.0,3.0,99,0.00,,,0.64,,2013-03-20 21:52:00,
2013-03-20 15:02:00,52.0,52.0,30.12,WNW,294,1.0,4.0,99,0.00,,,0.64,,2013-03-20 22:02:00,
2013-03-20 15:12:00,52.0,52.0,30.12,WNW,294,1.0,4.0,99,0.00,,,0.64,,2013-03-20 22:12:00,
2013-03-20 15:22:00,52.0,52.0,30.11,WSW,247,1.0,6.0,99,0.00,,,0.64,,2013-03-20 22:22:00,
2013-03-20 15:32:00,53.0,53.0,30.11,West,267,1.0,3.0,99,0.00,,,0.64,,2013-03-20 22:32:00,
2013-03-20 15:42:00,53.0,53.0,30.11,West,267,1.0,3.0,99,0.00,,,0.64,,2013-03-20 22:42:00,
2013-03-20 15:52:00,53.0,53.0,30.11,WSW,254,1.0,4.0,99,0.00,,,0.64,,2013-03-20 22:52:00,
2013-03-20 16:02:00,53.0,52.0,30.11,West,277,1.0,2.0,98,0.00,,,0.64,,2013-03-20 23:02:00,
2013-03-20 16:12:00,53.0,52.0,30.11,West,277,1.0,2.0,98,0.00,,,0.64,,2013-03-20 23:12:00,
2013-03-20 16:22:00,54.0,53.0,30.11,WSW,242,1.0,4.0,98,0.00,,,0.64,,2013-03-20 23:22:00,
2013-03-20 16:32:00,55.0,54.0,30.11,NW,309,2.0,6.0,97,0.00,,,0.64,,2013-03-20 23:32:00,
2013-03-20 16:42:00,55.0,54.0,30.11,NW,309,2.0,6.0,97,0.00,,,0.64,,2013-03-20 23:42:00,
2013-03-20 16:52:00,55.0,54.0,30.10,WNW,294,3.0,7.0,95,0.00,,,0.64,,2013-03-20 23:52:00,
2013-03-20 17:12:00,56.0,54.0,30.10,West,273,2.0,6.0,93,0.00,,,0.64,,2013-03-21 00:12:00,
2013-03-20 17:22:00,55.0,53.0,30.10,WNW,301,2.0,7.0,93,0.00,,,0.64,,2013-03-21 00:22:00,
2013-03-20 17:32:00,55.0,53.0,30.10,WNW,301,2.0,7.0,93,0.00,,,0.64,,2013-03-21 00:32:00,
2013-03-20 17:42:00,55.0,53.0,30.10,WNW,301,2.0,7.0,93,0.00,,,0.64,,2013-03-21 00:42:00,
2013-03-20 17:52:00,54.0,52.0,30.10,WNW,300,2.0,7.0,92,0.00,,,0.64,,2013-03-21 00:52:00,
2013-03-20 18:02:00,53.0,51.0,30.11,WNW,290,2.0,5.0,92,0.00,,,0.64,,2013-03-21 01:02:00,
2013-03-20 18:11:00,53.0,51.0,30.11,WNW,290,2.0,5.0,92,0.00,,,0.64,,2013-03-21 01:11:00,
2013-03-20 18:22:00,53.0,51.0,30.11,WNW,292,2.0,4.0,93,0.00,,,0.64,,2013-03-21 01:22:00,
2013-03-20 18:32:00,52.0,50.0,30.11,WNW,301,3.0,6.0,94,0.00,,,0.64,,2013-03-21 01:32:00,
2013-03-20 18:42:00,52.0,50.0,30.11,WNW,301,3.0,6.0,94,0.00,,,0.64,,2013-03-21 01:42:00,
2013-03-20 18:52:00,52.0,51.0,30.11,NW,320,1.0,5.0,95,0.00,,,0.64,,2013-03-21 01:52:00,
2013-03-20 19:02:00,52.0,51.0,30.11,WNW,298,2.0,5.0,95,0.00,,,0.64,,2013-03-21 02:02:00,
2013-03-20 19:12:00,52.0,51.0,30.11,WNW,298,2.0,5.0,95,0.00,,,0.64,,2013-03-21 02:12:00,
2013-03-20 19:22:00,52.0,51.0,30.11,West,280,1.0,5.0,96,0.00,,,0.64,,2013-03-21 02:22:00,
2013-03-20 19:32:00,52.0,51.0,30.11,SW,234,1.0,3.0,96,0.00,,,0.61,,2013-03-21 02:32:00,
2013-03-20 19:42:00,52.0,51.0,30.11,SW,234,1.0,3.0,96,0.00,,,0.61,,2013-03-21 02:42:00,
2013-03-20 19:51:00,52.0,51.0,30.11,SW,234,1.0,3.0,96,0.00,,,0.61,,2013-03-21 02:51:00,
2013-03-20 20:02:00,51.0,50.0,30.12,WNW,294,2.0,4.0,96,0.00,,,0.61,,2013-03-21 03:02:00,
2013-03-20 20:12:00,51.0,50.0,30.12,WNW,294,2.0,4.0,96,0.00,,,0.61,,2013-03-21 03:12:00,
2013-03-20 20:22:00,51.0,50.0,30.12,West,271,1.0,4.0,97,0.00,,,0.61,,2013-03-21 03:22:00,
2013-03-20 20:32:00,51.0,50.0,30.13,WSW,245,1.0,2.0,97,0.00,,,0.54,,2013-03-21 03:32:00,
2013-03-20 20:43:00,51.0,50.0,30.13,WSW,245,1.0,2.0,97,0.00,,,0.54,,2013-03-21 03:43:00,
2013-03-20 20:52:00,51.0,50.0,30.13,WNW,294,1.0,3.0,97,0.00,,,0.54,,2013-03-21 03:52:00,
2013-03-20 21:02:00,51.0,50.0,30.14,West,278,1.0,3.0,97,0.00,,,0.54,,2013-03-21 04:02:00,
2013-03-20 21:12:00,51.0,50.0,30.14,West,278,1.0,3.0,97,0.00,,,0.54,,2013-03-21 04:12:00,
2013-03-20 21:22:00,50.0,49.0,30.14,WSW,258,1.0,3.0,97,0.00,,,0.54,,2013-03-21 04:22:00,
2013-03-20 21:32:00,50.0,49.0,30.14,WNW,285,1.0,3.0,97,0.00,,,0.54,,2013-03-21 04:32:00,
2013-03-20 21:43:00,50.0,49.0,30.14,WNW,285,1.0,3.0,97,0.00,,,0.54,,2013-03-21 04:43:00,
2013-03-20 21:52:00,50.0,49.0,30.14,WSW,241,0.0,2.0,97,0.00,,,0.54,,2013-03-21 04:52:00,
2013-03-20 22:02:00,50.0,49.0,30.15,WSW,244,1.0,2.0,97,0.00,,,0.54,,2013-03-21 05:02:00,
2013-03-20 22:12:00,50.0,49.0,30.15,WSW,244,1.0,2.0,97,0.00,,,0.54,,2013-03-21 05:12:00,
2013-03-20 22:22:00,50.0,49.0,30.16,West,259,1.0,2.0,98,0.00,,,0.54,,2013-03-21 05:22:00,
2013-03-20 22:32:00,50.0,49.0,30.16,West,275,1.0,2.0,98,0.00,,,0.54,,2013-03-21 05:32:00,
2013-03-20 22:43:00,50.0,49.0,30.16,West,275,1.0,2.0,98,0.00,,,0.54,,2013-03-21 05:43:00,
2013-03-20 22:51:00,50.0,49.0,30.16,West,275,0.0,2.0,97,0.00,,,0.54,,2013-03-21 05:51:00,
2013-03-20 23:02:00,49.0,48.0,30.16,West,277,0.0,2.0,96,0.00,,,0.54,,2013-03-21 06:02:00,
2013-03-20 23:12:00,49.0,48.0,30.16,West,277,0.0,2.0,96,0.00,,,0.54,,2013-03-21 06:12:00,
2013-03-20 23:22:00,48.0,47.0,30.16,WNW,290,0.0,2.0,96,0.00,,,0.54,,2013-03-21 06:22:00,
2013-03-20 23:32:00,48.0,47.0,30.16,WSW,250,0.0,2.0,95,0.00,,,0.54,,2013-03-21 06:32:00,
2013-03-20 23:42:00,48.0,47.0,30.16,WSW,250,0.0,2.0,95,0.00,,,0.54,,2013-03-21 06:42:00,
2013-03-20 23:52:00,48.0,47.0,30.16,WSW,250,0.0,2.0,95,0.00,,,0.54,,2013-03-21 06:52:00,